Current | Forecast
Updated: 6:00 AM EEST on April 29, 2017
Observed at Kharkiv, Ukraine
Temperature 9°C
Humidity 71%
Dew Point 4°C
Wind ESE at 7 km/h
Pressure 1018 hPa (Rising)
Conditions Clear
Visibility -
UV N/A
Clouds
Yesterday's Maximum 23°C
Yesterday's Minimum 5°C approx.
Yesterday's Heating Degree Days 8 approx.
Sunrise5:15 AM EEST
Sunset7:46 PM EEST
Moon Rise7:42 AM EEST
Moon Set11:18 PM EEST
Moon PhaseMoon Phase
Waxing Crescent
Raw METARMETAR UKHH 290300Z 12002MPS CAVOK 09/04 Q1018 R07/0///67 NOSIG


Monday
. High: 62° F.
Tuesday
. High: 62° F.
Wednesday
. High: 62° F.
Thursday
. High: 68° F.
Friday
. High: 66° F.
Saturday
. High: 60° F.
Sunday
. High: 59° F.
Monday
. High: 69° F.

Units: English | Metric

Find the Weather for any City, State or Zipcode, or Country:

U.S. State List | Severe Weather | Tropical Storms | Ski Conditions
United States | Canada | Central America | South America | Asia | Europe | Australia | Africa | Islands

Weather Underground

© Copyright 2017
The Weather Company, LLC